CheckWX is a tool to help pilots better visualize weather data.  It is not intended as a substitute for an official pre-flight weather briefing.

23:29:45 UTC

CYSJ TAF
Saint John Airport
Saint John, Canada
TAF CYSJ 161738Z 1618/1706 31015G25KT P6SM FEW040 BECMG 1620/1622 32012G22KT RMK NXT FCST BY 170000Z

Nov-16@
18:00 UTC

Nov-16 @ 18:00 UTC

Nov-16@
20:00 UTC

Nov-16 @ 20:00 UTC

TAF CYSJ 161738Z 1618/1706 31015G25KT P6SM FEW040

Expired

Wind
  • 310° at 15 KTS
  • {Gusting to 25 KTS
Cloud Levels
  • Few at 4,000' AGL

Nov-16@
20:00 UTC

Nov-16 @ 20:00 UTC

Nov-17@
06:00 UTC

Nov-17 @ 06:00 UTC

BECMG 1620/1622 32012G22KT RMK NXT FCST BY 170000Z

Becoming

Becoming Conditions expected by Sat, Nov 16, 2019 @ 22:00 UTC

Wind
  • 320° at 12 KTS
  • {Gusting to 22 KTS
Cloud Levels
  • Few at 4,000' AGL